Time;durP1;ratioP1;P1;durP2;ratioP2;P2;SDS_P1;SDS_P2;PMS_P1;PMS_P2;Temp;Humidity;BMP_temperature;BMP_pressure;BME280_temperature;BME280_humidity;BME280_pressure;Samples;Min_cycle;Max_cycle;Signal;HPM_P1;HPM_P2
2023/07/30 00:00:31;;;;;;;10.88;6.15;;;;;;;;;;5099451;28;20491;-63
2023/07/30 00:02:56;;;;;;;8.77;5.72;;;;;;;;;;5110658;28;20092;-63
2023/07/30 00:05:21;;;;;;;8.65;5.47;;;;;;;;;;5112883;28;20032;-66
2023/07/30 00:07:47;;;;;;;11.10;4.80;;;;;;;;;;5106018;28;20389;-63
2023/07/30 00:10:12;;;;;;;10.73;4.75;;;;;;;;;;5093589;28;20086;-63
2023/07/30 00:12:38;;;;;;;8.05;4.45;;;;;;;;;;5105444;28;20027;-63
2023/07/30 00:15:04;;;;;;;8.43;4.03;;;;;;;;;;5108103;28;20024;-63
2023/07/30 00:17:29;;;;;;;9.27;3.97;;;;;;;;;;5111155;28;20031;-64
2023/07/30 00:19:54;;;;;;;7.25;3.97;;;;;;;;;;5105879;28;20036;-64
2023/07/30 00:22:20;;;;;;;8.95;4.18;;;;;;;;;;5098115;28;20122;-63
2023/07/30 00:24:45;;;;;;;7.55;4.32;;;;;;;;;;5091356;28;20043;-63
2023/07/30 00:27:10;;;;;;;9.32;4.30;;;;;;;;;;5092725;28;20070;-63
2023/07/30 00:29:36;;;;;;;7.53;3.95;;;;;;;;;;5103127;28;20063;-63
2023/07/30 00:32:01;;;;;;;10.60;4.38;;;;;;;;;;5110035;28;20460;-65
2023/07/30 00:34:27;;;;;;;7.20;4.28;;;;;;;;;;5100673;27;20077;-66
2023/07/30 00:36:52;;;;;;;7.20;3.90;;;;;;;;;;5105213;28;20034;-63
2023/07/30 00:39:20;;;;;;;13.95;4.40;;;;;;;;;;5096440;28;20373;-63
2023/07/30 00:41:49;;;;;;;7.57;4.50;;;;;;;;;;5107218;28;20023;-64
2023/07/30 00:44:14;;;;;;;8.73;4.30;;;;;;;;;;5105982;28;20039;-63
2023/07/30 00:46:40;;;;;;;7.97;4.47;;;;;;;;;;5110581;28;20020;-64
2023/07/30 00:49:06;;;;;;;7.85;4.43;;;;;;;;;;5094068;28;20032;-63
2023/07/30 00:51:36;;;;;;;11.23;4.68;;;;;;;;;;5100646;28;20093;-64
2023/07/30 00:54:01;;;;;;;10.17;4.80;;;;;;;;;;5111338;28;20278;-63
2023/07/30 00:56:27;;;;;;;9.27;4.47;;;;;;;;;;5109722;28;20051;-66
2023/07/30 00:58:53;;;;;;;10.63;4.70;;;;;;;;;;5110176;28;20032;-63
2023/07/30 01:01:19;;;;;;;8.60;4.72;;;;;;;;;;5099424;28;20070;-63
2023/07/30 01:03:44;;;;;;;8.82;4.65;;;;;;;;;;5109077;28;20356;-63
2023/07/30 01:06:10;;;;;;;10.52;5.13;;;;;;;;;;5111907;28;20028;-63
2023/07/30 01:08:35;;;;;;;10.48;4.93;;;;;;;;;;5110083;28;20023;-63
2023/07/30 01:11:03;;;;;;;12.05;5.57;;;;;;;;;;5102997;28;20114;-63
2023/07/30 01:13:29;;;;;;;11.20;5.03;;;;;;;;;;5099779;28;20032;-67
2023/07/30 01:15:54;;;;;;;11.00;5.30;;;;;;;;;;5098622;28;20039;-63
2023/07/30 01:18:20;;;;;;;9.18;4.95;;;;;;;;;;5111665;28;20050;-63
2023/07/30 01:20:45;;;;;;;12.80;5.07;;;;;;;;;;5107624;28;20223;-64
2023/07/30 01:23:10;;;;;;;12.65;5.22;;;;;;;;;;5112085;28;20023;-63
2023/07/30 01:25:37;;;;;;;8.85;5.10;;;;;;;;;;5111021;28;20030;-63
2023/07/30 01:28:04;;;;;;;10.05;5.00;;;;;;;;;;5093099;28;20036;-63
2023/07/30 01:30:41;;;;;;;8.75;5.22;;;;;;;;;;5092434;28;20294;-66
2023/07/30 01:33:08;;;;;;;11.30;5.10;;;;;;;;;;5091180;28;20109;-63
2023/07/30 01:35:36;;;;;;;12.13;5.35;;;;;;;;;;5099767;28;20093;-64
2023/07/30 01:38:06;;;;;;;11.70;4.95;;;;;;;;;;5107996;28;20048;-63
2023/07/30 01:40:34;;;;;;;11.32;5.47;;;;;;;;;;5099858;28;20046;-64
2023/07/30 01:42:59;;;;;;;8.88;4.80;;;;;;;;;;5110414;28;20041;-63
2023/07/30 01:45:25;;;;;;;11.73;4.93;;;;;;;;;;5111537;28;20110;-64
2023/07/30 01:47:50;;;;;;;11.50;4.65;;;;;;;;;;5110823;28;20034;-64
2023/07/30 01:50:16;;;;;;;9.30;4.88;;;;;;;;;;5108603;28;20031;-64
2023/07/30 01:52:44;;;;;;;11.43;4.78;;;;;;;;;;5090364;28;20051;-63
2023/07/30 01:55:09;;;;;;;11.38;5.15;;;;;;;;;;5093194;28;20028;-64
2023/07/30 01:57:35;;;;;;;9.52;5.05;;;;;;;;;;5110865;28;20084;-64
2023/07/30 02:00:00;;;;;;;11.10;4.90;;;;;;;;;;5109587;28;20095;-63
2023/07/30 02:02:26;;;;;;;12.20;4.90;;;;;;;;;;5111636;28;20035;-63
2023/07/30 02:04:51;;;;;;;8.63;4.78;;;;;;;;;;5108203;28;20035;-63
2023/07/30 02:07:16;;;;;;;13.20;5.47;;;;;;;;;;5111724;28;20043;-63
2023/07/30 02:09:43;;;;;;;10.60;5.10;;;;;;;;;;5109854;28;20080;-63
2023/07/30 02:12:08;;;;;;;10.27;5.47;;;;;;;;;;5097600;28;20036;-64
2023/07/30 02:14:34;;;;;;;10.43;5.20;;;;;;;;;;5098343;28;20376;-64
2023/07/30 02:16:59;;;;;;;11.18;5.28;;;;;;;;;;5095987;28;20159;-64
2023/07/30 02:19:27;;;;;;;13.30;5.70;;;;;;;;;;5115460;28;20028;-63
2023/07/30 02:21:52;;;;;;;9.73;5.63;;;;;;;;;;5113236;28;20581;-63
2023/07/30 02:24:18;;;;;;;13.50;5.68;;;;;;;;;;5106884;28;20060;-64
2023/07/30 02:26:43;;;;;;;11.32;6.00;;;;;;;;;;5099959;28;20392;-63
2023/07/30 02:29:08;;;;;;;10.77;5.57;;;;;;;;;;5093610;28;20131;-63
2023/07/30 02:31:34;;;;;;;9.32;5.70;;;;;;;;;;5111953;28;20118;-66
2023/07/30 02:33:59;;;;;;;19.67;5.97;;;;;;;;;;5110896;28;20103;-63
2023/07/30 02:36:25;;;;;;;10.90;5.85;;;;;;;;;;5102405;28;20357;-64
2023/07/30 02:38:50;;;;;;;12.15;5.63;;;;;;;;;;5099177;28;20028;-64
2023/07/30 02:41:16;;;;;;;15.80;6.15;;;;;;;;;;5102576;28;20033;-63
2023/07/30 02:43:42;;;;;;;9.63;5.80;;;;;;;;;;5113116;28;20058;-63
2023/07/30 02:46:09;;;;;;;11.38;6.00;;;;;;;;;;5109659;28;20457;-63
2023/07/30 02:48:34;;;;;;;12.20;6.15;;;;;;;;;;5093342;28;20135;-66
2023/07/30 02:51:00;;;;;;;12.10;5.93;;;;;;;;;;5106375;28;20516;-63
2023/07/30 02:53:25;;;;;;;11.13;6.18;;;;;;;;;;5106115;28;20461;-63
2023/07/30 02:55:51;;;;;;;13.45;6.13;;;;;;;;;;5102059;28;20036;-63
2023/07/30 02:58:16;;;;;;;12.02;5.88;;;;;;;;;;5112571;28;20110;-63
2023/07/30 03:00:41;;;;;;;9.90;5.43;;;;;;;;;;5099340;28;20027;-64
2023/07/30 03:03:07;;;;;;;12.60;6.03;;;;;;;;;;5110258;28;20031;-65
2023/07/30 03:05:32;;;;;;;11.60;5.70;;;;;;;;;;5110655;28;20055;-66
2023/07/30 03:07:58;;;;;;;11.15;5.88;;;;;;;;;;5103188;28;20469;-63
2023/07/30 03:10:23;;;;;;;12.13;5.40;;;;;;;;;;5093882;28;20036;-63
2023/07/30 03:12:48;;;;;;;11.82;5.30;;;;;;;;;;5105627;28;20027;-63
2023/07/30 03:15:14;;;;;;;11.90;5.85;;;;;;;;;;5113478;27;20509;-64
2023/07/30 03:17:39;;;;;;;10.02;5.65;;;;;;;;;;5102660;28;20038;-63
2023/07/30 03:20:08;;;;;;;15.50;5.55;;;;;;;;;;5112899;28;20480;-63
2023/07/30 03:22:34;;;;;;;12.23;5.43;;;;;;;;;;5095448;28;20043;-66
2023/07/30 03:24:59;;;;;;;12.50;5.88;;;;;;;;;;5093303;28;20027;-64
2023/07/30 03:27:27;;;;;;;9.60;5.07;;;;;;;;;;5096631;28;20019;-62
2023/07/30 03:29:52;;;;;;;8.88;5.30;;;;;;;;;;5112283;28;20040;-64
2023/07/30 03:32:17;;;;;;;10.55;5.57;;;;;;;;;;5108348;28;20038;-63
2023/07/30 03:34:43;;;;;;;10.48;5.47;;;;;;;;;;5112046;28;20109;-64
2023/07/30 03:37:08;;;;;;;12.45;5.85;;;;;;;;;;5111924;28;20024;-64
2023/07/30 03:39:36;;;;;;;9.93;5.35;;;;;;;;;;5099211;28;20434;-67
2023/07/30 03:42:02;;;;;;;12.23;5.95;;;;;;;;;;5097570;28;20041;-64
2023/07/30 03:44:27;;;;;;;10.45;6.15;;;;;;;;;;5093458;28;20054;-63
2023/07/30 03:46:53;;;;;;;12.10;6.05;;;;;;;;;;5092013;28;20411;-63
2023/07/30 03:49:18;;;;;;;11.52;5.78;;;;;;;;;;5096704;28;20451;-63
2023/07/30 03:51:43;;;;;;;12.30;5.40;;;;;;;;;;5104335;28;20100;-65
2023/07/30 03:54:09;;;;;;;12.73;5.50;;;;;;;;;;5092764;28;20071;-65
2023/07/30 03:56:34;;;;;;;10.63;5.10;;;;;;;;;;5108138;28;20484;-64
2023/07/30 03:59:00;;;;;;;15.02;5.38;;;;;;;;;;5092369;28;20033;-65
2023/07/30 04:01:25;;;;;;;11.75;5.43;;;;;;;;;;5111598;28;20501;-64
2023/07/30 04:03:50;;;;;;;11.07;4.93;;;;;;;;;;5109932;28;20082;-65
2023/07/30 04:06:16;;;;;;;9.82;4.97;;;;;;;;;;5112377;28;20072;-65
2023/07/30 04:08:41;;;;;;;12.48;4.82;;;;;;;;;;5101933;28;20034;-64
2023/07/30 04:11:07;;;;;;;12.93;4.95;;;;;;;;;;5109449;28;20032;-63
2023/07/30 04:13:33;;;;;;;11.90;5.03;;;;;;;;;;5094787;28;20172;-65
2023/07/30 04:15:58;;;;;;;12.25;5.00;;;;;;;;;;5099988;28;20032;-63
2023/07/30 04:18:23;;;;;;;7.70;4.38;;;;;;;;;;5110978;28;20138;-63
2023/07/30 04:20:49;;;;;;;10.10;4.53;;;;;;;;;;5105835;28;20032;-64
2023/07/30 04:23:14;;;;;;;6.45;3.95;;;;;;;;;;5092611;28;20082;-63
2023/07/30 04:25:40;;;;;;;8.85;4.10;;;;;;;;;;5095966;28;20032;-66
2023/07/30 04:28:05;;;;;;;13.50;4.60;;;;;;;;;;5110896;28;20434;-64
2023/07/30 04:30:31;;;;;;;10.05;4.45;;;;;;;;;;5111783;28;20476;-63
2023/07/30 04:32:57;;;;;;;12.45;4.18;;;;;;;;;;5095867;28;20213;-63
2023/07/30 04:35:22;;;;;;;9.77;3.97;;;;;;;;;;5091605;28;20465;-63
2023/07/30 04:37:47;;;;;;;12.15;4.20;;;;;;;;;;5106067;28;20028;-63
2023/07/30 04:40:15;;;;;;;8.43;4.15;;;;;;;;;;5101152;28;20476;-63
2023/07/30 04:42:40;;;;;;;10.15;3.97;;;;;;;;;;5111330;28;20059;-66
2023/07/30 04:45:06;;;;;;;10.02;4.30;;;;;;;;;;5108246;28;20063;-63
2023/07/30 04:47:32;;;;;;;12.02;3.90;;;;;;;;;;5103484;28;20119;-63
2023/07/30 04:49:58;;;;;;;8.25;3.65;;;;;;;;;;5107316;28;20685;-63
2023/07/30 04:52:23;;;;;;;13.70;4.20;;;;;;;;;;5095497;28;20054;-63
2023/07/30 04:54:48;;;;;;;11.70;3.97;;;;;;;;;;5091011;28;20556;-63
2023/07/30 04:57:14;;;;;;;11.82;4.00;;;;;;;;;;5099441;28;20025;-63
2023/07/30 04:59:39;;;;;;;12.73;4.32;;;;;;;;;;5104292;28;20469;-66
2023/07/30 05:02:05;;;;;;;9.10;3.58;;;;;;;;;;5109002;28;20035;-63
2023/07/30 05:04:33;;;;;;;11.30;4.30;;;;;;;;;;5104357;28;20040;-63
2023/07/30 05:06:58;;;;;;;11.40;4.03;;;;;;;;;;5091161;28;20028;-63
2023/07/30 05:09:23;;;;;;;9.68;4.10;;;;;;;;;;5090917;28;20115;-63
2023/07/30 05:11:49;;;;;;;14.20;4.53;;;;;;;;;;5109609;28;20050;-64
2023/07/30 05:14:14;;;;;;;8.48;4.28;;;;;;;;;;5110153;28;20110;-63
2023/07/30 05:16:39;;;;;;;9.57;4.35;;;;;;;;;;5107404;28;20023;-66
2023/07/30 05:19:05;;;;;;;12.05;4.80;;;;;;;;;;5111407;28;20076;-63
2023/07/30 05:21:30;;;;;;;10.90;4.43;;;;;;;;;;5112080;28;20382;-63
2023/07/30 05:23:56;;;;;;;7.82;3.90;;;;;;;;;;5095309;28;20035;-64
2023/07/30 05:26:21;;;;;;;13.68;4.68;;;;;;;;;;5101009;28;20162;-64
2023/07/30 05:28:46;;;;;;;13.63;4.70;;;;;;;;;;5111098;28;20041;-63
2023/07/30 05:31:12;;;;;;;14.18;4.50;;;;;;;;;;5112177;28;20084;-63
2023/07/30 05:33:37;;;;;;;13.98;4.53;;;;;;;;;;5111096;28;20158;-63
2023/07/30 05:36:03;;;;;;;12.15;4.47;;;;;;;;;;5110019;28;20491;-63
2023/07/30 05:38:28;;;;;;;13.63;5.53;;;;;;;;;;5112069;28;20056;-63
2023/07/30 05:40:53;;;;;;;18.55;6.53;;;;;;;;;;5109536;28;20549;-63
2023/07/30 05:43:19;;;;;;;12.85;7.03;;;;;;;;;;5115393;28;20036;-63
2023/07/30 05:45:44;;;;;;;19.70;8.15;;;;;;;;;;5114530;28;20032;-66
2023/07/30 05:48:10;;;;;;;15.45;8.07;;;;;;;;;;5116115;28;20019;-63
2023/07/30 05:50:35;;;;;;;16.10;8.18;;;;;;;;;;5101877;28;20028;-62
2023/07/30 05:53:01;;;;;;;15.75;8.43;;;;;;;;;;5107865;28;20028;-62
2023/07/30 05:55:26;;;;;;;18.40;8.35;;;;;;;;;;5114650;28;20028;-62
2023/07/30 05:57:53;;;;;;;20.60;9.15;;;;;;;;;;5113872;28;20039;-63
2023/07/30 06:00:19;;;;;;;18.13;8.68;;;;;;;;;;5115907;28;20024;-62
2023/07/30 06:02:44;;;;;;;19.73;8.23;;;;;;;;;;5108734;28;20031;-65
2023/07/30 06:05:09;;;;;;;18.73;7.88;;;;;;;;;;5115622;28;20060;-63
2023/07/30 06:07:35;;;;;;;18.52;7.53;;;;;;;;;;5114080;28;20034;-64
2023/07/30 06:10:00;;;;;;;14.50;7.22;;;;;;;;;;5113888;28;20059;-66
2023/07/30 06:12:26;;;;;;;15.55;6.93;;;;;;;;;;5113278;28;20643;-65
2023/07/30 06:14:51;;;;;;;15.15;6.18;;;;;;;;;;5113255;28;20024;-64
2023/07/30 06:17:16;;;;;;;14.38;6.07;;;;;;;;;;5114203;28;20027;-64
2023/07/30 06:19:42;;;;;;;16.05;5.97;;;;;;;;;;5113516;28;20028;-62
2023/07/30 06:22:07;;;;;;;14.50;5.90;;;;;;;;;;5114336;28;20054;-64
2023/07/30 06:24:32;;;;;;;14.80;6.38;;;;;;;;;;5114344;28;20085;-63
2023/07/30 06:26:58;;;;;;;18.98;6.13;;;;;;;;;;5108864;28;20034;-65
2023/07/30 06:29:23;;;;;;;16.73;5.38;;;;;;;;;;5115365;28;20052;-63
2023/07/30 06:31:49;;;;;;;15.40;6.47;;;;;;;;;;5114078;28;20460;-65
2023/07/30 06:34:14;;;;;;;13.65;6.30;;;;;;;;;;5115047;28;20482;-63
2023/07/30 06:36:40;;;;;;;16.80;6.30;;;;;;;;;;5115304;27;20376;-63
2023/07/30 06:39:08;;;;;;;11.02;5.82;;;;;;;;;;5113926;28;20044;-63
2023/07/30 06:41:34;;;;;;;16.05;6.18;;;;;;;;;;5110238;28;20041;-63
2023/07/30 06:43:59;;;;;;;16.67;6.15;;;;;;;;;;5113287;28;20035;-65
2023/07/30 06:46:24;;;;;;;14.93;5.78;;;;;;;;;;5113445;28;20032;-64
2023/07/30 06:48:50;;;;;;;12.75;5.47;;;;;;;;;;5113891;28;20031;-65
2023/07/30 06:51:19;;;;;;;13.15;6.13;;;;;;;;;;5098927;28;20024;-64
2023/07/30 06:53:44;;;;;;;15.70;5.90;;;;;;;;;;5112282;28;20039;-68
2023/07/30 06:56:10;;;;;;;16.17;5.97;;;;;;;;;;5114243;28;20020;-64
2023/07/30 06:58:35;;;;;;;12.70;5.10;;;;;;;;;;5113496;28;20031;-64
2023/07/30 07:01:01;;;;;;;14.55;5.75;;;;;;;;;;5113545;28;20032;-64
2023/07/30 07:03:26;;;;;;;11.00;5.22;;;;;;;;;;5114023;27;20084;-63
2023/07/30 07:05:55;;;;;;;14.50;5.72;;;;;;;;;;5113863;28;20028;-64
2023/07/30 07:08:21;;;;;;;17.40;5.40;;;;;;;;;;5112135;28;20035;-64
2023/07/30 07:10:46;;;;;;;14.98;5.75;;;;;;;;;;5114018;28;20066;-68
2023/07/30 07:13:15;;;;;;;12.95;5.22;;;;;;;;;;5112679;28;20404;-63
2023/07/30 07:15:41;;;;;;;17.88;5.95;;;;;;;;;;5111989;28;20078;-65
2023/07/30 07:18:06;;;;;;;13.80;5.85;;;;;;;;;;5113250;28;20035;-64
2023/07/30 07:20:32;;;;;;;12.90;6.13;;;;;;;;;;5114280;28;20039;-63
2023/07/30 07:22:57;;;;;;;14.55;6.13;;;;;;;;;;5113467;28;20525;-64
2023/07/30 07:25:22;;;;;;;14.27;5.72;;;;;;;;;;5112795;28;20039;-63
2023/07/30 07:27:48;;;;;;;14.60;5.90;;;;;;;;;;5113552;28;20023;-67
2023/07/30 07:30:13;;;;;;;10.38;5.43;;;;;;;;;;5109304;28;20119;-63
2023/07/30 07:32:39;;;;;;;15.45;5.40;;;;;;;;;;5112125;28;20035;-63
2023/07/30 07:35:05;;;;;;;13.95;5.40;;;;;;;;;;5111154;28;20027;-62
2023/07/30 07:37:32;;;;;;;13.18;4.93;;;;;;;;;;5109765;28;20031;-63
2023/07/30 07:39:57;;;;;;;13.52;5.45;;;;;;;;;;5111327;28;20019;-63
2023/07/30 07:42:23;;;;;;;12.85;5.45;;;;;;;;;;5095677;28;20042;-63
2023/07/30 07:44:48;;;;;;;14.00;5.30;;;;;;;;;;5093074;28;20115;-66
2023/07/30 07:47:13;;;;;;;13.13;5.00;;;;;;;;;;5092885;28;20028;-63
2023/07/30 07:49:39;;;;;;;12.07;5.05;;;;;;;;;;5092753;28;20441;-63
2023/07/30 07:52:05;;;;;;;13.55;4.80;;;;;;;;;;5109877;28;20028;-63
2023/07/30 07:54:30;;;;;;;13.40;4.50;;;;;;;;;;5112233;28;20031;-62
2023/07/30 07:56:55;;;;;;;10.20;4.50;;;;;;;;;;5112871;28;20039;-63
2023/07/30 07:59:21;;;;;;;11.20;4.40;;;;;;;;;;5109366;28;20103;-62
2023/07/30 08:01:46;;;;;;;11.98;4.47;;;;;;;;;;5107911;28;20062;-64
2023/07/30 08:04:12;;;;;;;11.10;3.85;;;;;;;;;;5098022;28;20210;-58
2023/07/30 08:06:37;;;;;;;10.32;4.00;;;;;;;;;;5104698;28;20059;-60
2023/07/30 08:09:03;;;;;;;12.05;3.90;;;;;;;;;;5111988;28;20498;-60
2023/07/30 08:11:28;;;;;;;11.30;4.38;;;;;;;;;;5113350;28;20023;-60
2023/07/30 08:13:53;;;;;;;8.77;3.92;;;;;;;;;;5112291;28;20035;-61
2023/07/30 08:16:19;;;;;;;13.70;4.07;;;;;;;;;;5113273;28;20028;-60
2023/07/30 08:18:45;;;;;;;8.10;3.70;;;;;;;;;;5112931;28;20035;-59
2023/07/30 08:21:10;;;;;;;9.73;3.67;;;;;;;;;;5111216;28;20069;-60
2023/07/30 08:23:35;;;;;;;11.13;3.40;;;;;;;;;;5112210;27;20023;-60
2023/07/30 08:26:01;;;;;;;8.18;3.40;;;;;;;;;;5109137;28;20055;-60
2023/07/30 08:28:26;;;;;;;10.60;3.92;;;;;;;;;;5109785;28;20074;-59
2023/07/30 08:30:52;;;;;;;12.45;3.63;;;;;;;;;;5112842;28;20047;-60
2023/07/30 08:33:17;;;;;;;14.32;4.05;;;;;;;;;;5112421;28;20028;-59
2023/07/30 08:35:42;;;;;;;12.10;4.25;;;;;;;;;;5112555;28;20469;-60
2023/07/30 08:38:08;;;;;;;10.85;3.88;;;;;;;;;;5110909;28;20034;-59
2023/07/30 08:40:33;;;;;;;7.90;4.05;;;;;;;;;;5110391;28;20028;-59
2023/07/30 08:42:59;;;;;;;11.25;3.92;;;;;;;;;;5111722;28;20472;-59
2023/07/30 08:45:25;;;;;;;10.40;4.03;;;;;;;;;;5112695;28;20031;-59
2023/07/30 08:47:50;;;;;;;10.55;4.50;;;;;;;;;;5112615;28;20023;-60
2023/07/30 08:50:18;;;;;;;13.10;4.13;;;;;;;;;;5111625;28;20517;-59
2023/07/30 08:52:44;;;;;;;12.18;4.30;;;;;;;;;;5109879;28;20032;-59
2023/07/30 08:55:13;;;;;;;9.23;4.47;;;;;;;;;;5111499;28;20080;-59
2023/07/30 08:57:40;;;;;;;9.55;3.97;;;;;;;;;;5112440;28;20055;-59
2023/07/30 09:00:11;;;;;;;16.77;4.53;;;;;;;;;;5111524;28;20197;-59
2023/07/30 09:02:44;;;;;;;8.38;3.50;;;;;;;;;;5112582;28;20111;-59
2023/07/30 09:05:10;;;;;;;9.57;3.92;;;;;;;;;;5110301;28;20448;-59
2023/07/30 09:07:36;;;;;;;10.20;3.72;;;;;;;;;;5112464;28;20092;-59
2023/07/30 09:10:01;;;;;;;12.93;4.38;;;;;;;;;;5111478;28;20083;-60
2023/07/30 09:12:33;;;;;;;9.98;3.80;;;;;;;;;;5110718;28;20038;-60
2023/07/30 09:15:00;;;;;;;11.10;4.25;;;;;;;;;;5108229;28;20043;-59
2023/07/30 09:17:26;;;;;;;12.65;4.50;;;;;;;;;;5112344;28;20031;-59
2023/07/30 09:19:52;;;;;;;13.00;4.65;;;;;;;;;;5111840;28;20429;-59
2023/07/30 09:22:41;;;;;;;12.60;4.07;;;;;;;;;;5111459;28;20039;-60
2023/07/30 09:25:08;;;;;;;10.68;4.13;;;;;;;;;;5111366;28;20031;-60
2023/07/30 09:27:34;;;;;;;10.75;4.00;;;;;;;;;;5106143;28;20433;-59
2023/07/30 09:30:00;;;;;;;13.25;3.90;;;;;;;;;;5090425;28;20048;-59
2023/07/30 09:32:27;;;;;;;10.43;4.05;;;;;;;;;;5092076;28;20039;-59
2023/07/30 09:34:53;;;;;;;9.88;3.60;;;;;;;;;;5091526;28;20036;-60
2023/07/30 09:37:18;;;;;;;11.85;3.83;;;;;;;;;;5095210;28;20043;-59
2023/07/30 09:39:47;;;;;;;11.48;4.10;;;;;;;;;;5110674;28;20061;-59
2023/07/30 09:42:12;;;;;;;9.90;3.67;;;;;;;;;;5109329;28;20028;-59
2023/07/30 09:44:39;;;;;;;13.63;3.85;;;;;;;;;;5091604;28;20042;-59
2023/07/30 09:47:06;;;;;;;10.15;3.95;;;;;;;;;;5090759;28;20069;-59
2023/07/30 09:49:32;;;;;;;8.80;3.65;;;;;;;;;;5091538;28;20032;-60
2023/07/30 09:51:58;;;;;;;11.13;4.30;;;;;;;;;;5095868;28;20426;-60
2023/07/30 09:54:23;;;;;;;10.20;3.33;;;;;;;;;;5110209;28;20035;-59
2023/07/30 09:56:48;;;;;;;9.38;3.40;;;;;;;;;;5111650;28;20035;-59
2023/07/30 09:59:14;;;;;;;10.10;3.35;;;;;;;;;;5111172;28;20039;-59
2023/07/30 10:01:53;;;;;;;8.98;3.00;;;;;;;;;;5111636;28;20405;-59
2023/07/30 10:04:20;;;;;;;10.13;3.20;;;;;;;;;;5111074;28;20035;-59
2023/07/30 10:07:08;;;;;;;8.57;2.90;;;;;;;;;;5111540;28;20035;-59
2023/07/30 10:09:44;;;;;;;13.35;3.20;;;;;;;;;;5109934;28;20115;-59
2023/07/30 10:12:22;;;;;;;7.90;2.35;;;;;;;;;;5110892;28;20110;-60
2023/07/30 10:14:47;;;;;;;6.40;2.13;;;;;;;;;;5111440;28;20460;-60
2023/07/30 10:17:13;;;;;;;6.85;2.67;;;;;;;;;;5110962;28;20035;-60
2023/07/30 10:19:38;;;;;;;8.50;2.47;;;;;;;;;;5110536;28;20032;-59
2023/07/30 10:22:13;;;;;;;6.63;2.35;;;;;;;;;;5110910;28;20516;-59
2023/07/30 10:24:39;;;;;;;8.50;2.60;;;;;;;;;;5110228;28;20039;-58
2023/07/30 10:27:09;;;;;;;8.95;2.28;;;;;;;;;;5109731;28;20019;-59
2023/07/30 10:29:36;;;;;;;8.55;2.50;;;;;;;;;;5094962;28;20138;-60
2023/07/30 10:32:02;;;;;;;8.85;2.38;;;;;;;;;;5094417;28;20032;-59
2023/07/30 10:34:44;;;;;;;7.80;2.17;;;;;;;;;;5094931;28;20043;-58
2023/07/30 10:37:09;;;;;;;10.27;2.70;;;;;;;;;;5108050;28;20035;-58
2023/07/30 10:39:35;;;;;;;6.18;1.88;;;;;;;;;;5114851;28;20103;-59
2023/07/30 10:42:01;;;;;;;7.93;2.20;;;;;;;;;;5114724;28;20384;-59
2023/07/30 10:44:28;;;;;;;10.35;2.50;;;;;;;;;;5114659;28;20114;-58
2023/07/30 10:46:55;;;;;;;6.15;2.40;;;;;;;;;;5114448;28;20527;-58
2023/07/30 10:49:21;;;;;;;4.78;2.08;;;;;;;;;;5112502;28;20213;-58
2023/07/30 10:51:47;;;;;;;8.95;2.38;;;;;;;;;;5113597;28;20027;-58
2023/07/30 10:54:12;;;;;;;6.65;2.50;;;;;;;;;;5114198;28;20519;-58
2023/07/30 10:56:41;;;;;;;9.88;2.53;;;;;;;;;;5114649;28;20120;-59
2023/07/30 10:59:07;;;;;;;8.13;2.53;;;;;;;;;;5113569;28;20361;-58
2023/07/30 11:01:45;;;;;;;8.73;2.88;;;;;;;;;;5114713;28;20030;-58
2023/07/30 11:04:18;;;;;;;8.73;2.58;;;;;;;;;;5113065;28;20047;-59
2023/07/30 11:06:49;;;;;;;9.35;2.63;;;;;;;;;;5111271;28;20034;-59
2023/07/30 11:09:25;;;;;;;7.72;2.25;;;;;;;;;;5112974;28;20119;-59
2023/07/30 11:11:57;;;;;;;6.55;2.22;;;;;;;;;;5114437;28;20085;-59
2023/07/30 11:14:27;;;;;;;7.68;2.28;;;;;;;;;;5113508;28;20493;-59
2023/07/30 11:17:00;;;;;;;8.48;2.00;;;;;;;;;;5095082;28;20040;-59
2023/07/30 11:19:26;;;;;;;8.20;2.10;;;;;;;;;;5092930;28;20046;-59
2023/07/30 11:21:59;;;;;;;5.57;2.10;;;;;;;;;;5093814;28;20383;-59
2023/07/30 11:24:35;;;;;;;7.85;2.40;;;;;;;;;;5108328;28;20059;-59
2023/07/30 11:27:01;;;;;;;5.55;2.20;;;;;;;;;;5114194;28;20114;-59
2023/07/30 11:29:27;;;;;;;6.68;2.20;;;;;;;;;;5113185;28;20043;-59
2023/07/30 11:31:57;;;;;;;6.90;1.90;;;;;;;;;;5114043;28;20111;-59
2023/07/30 11:34:27;;;;;;;7.43;2.17;;;;;;;;;;5113487;28;20251;-59
2023/07/30 11:36:53;;;;;;;6.13;1.90;;;;;;;;;;5112122;28;20061;-59
2023/07/30 11:39:19;;;;;;;5.38;1.55;;;;;;;;;;5113208;28;20027;-59
2023/07/30 11:41:45;;;;;;;6.22;2.10;;;;;;;;;;5114031;28;20380;-59
2023/07/30 11:44:30;;;;;;;7.28;1.90;;;;;;;;;;5113095;28;20464;-59
2023/07/30 11:46:55;;;;;;;8.30;1.73;;;;;;;;;;5113941;27;20031;-59
2023/07/30 11:49:21;;;;;;;5.25;1.90;;;;;;;;;;5111725;28;20026;-59
2023/07/30 11:51:48;;;;;;;8.35;2.03;;;;;;;;;;5112784;28;20400;-59
2023/07/30 11:54:21;;;;;;;5.25;1.77;;;;;;;;;;5112709;28;20035;-59
2023/07/30 11:56:46;;;;;;;8.55;1.85;;;;;;;;;;5113610;28;20106;-59
2023/07/30 11:59:12;;;;;;;4.80;1.60;;;;;;;;;;5112653;28;20051;-59
2023/07/30 12:01:37;;;;;;;6.72;1.33;;;;;;;;;;5113303;28;20383;-58
2023/07/30 12:04:05;;;;;;;6.93;1.80;;;;;;;;;;5113419;28;20459;-60
2023/07/30 12:06:43;;;;;;;6.53;2.00;;;;;;;;;;5111308;28;20031;-59
2023/07/30 12:09:22;;;;;;;7.97;1.90;;;;;;;;;;5107511;28;20369;-59
2023/07/30 12:11:54;;;;;;;4.15;1.50;;;;;;;;;;5113253;28;20372;-59
2023/07/30 12:14:25;;;;;;;6.22;2.00;;;;;;;;;;5111998;28;20352;-59
2023/07/30 12:16:51;;;;;;;6.80;1.70;;;;;;;;;;5094173;28;20071;-59
2023/07/30 12:19:16;;;;;;;5.55;1.70;;;;;;;;;;5091846;28;20059;-59
2023/07/30 12:21:41;;;;;;;6.53;1.95;;;;;;;;;;5095130;28;20586;-59
2023/07/30 12:24:07;;;;;;;5.07;1.83;;;;;;;;;;5112593;28;20028;-59
2023/07/30 12:26:32;;;;;;;4.82;1.75;;;;;;;;;;5112886;28;20054;-59
2023/07/30 12:28:58;;;;;;;6.10;1.67;;;;;;;;;;5113035;28;20130;-59
2023/07/30 12:31:23;;;;;;;7.57;1.80;;;;;;;;;;5112084;28;20034;-59
2023/07/30 12:33:48;;;;;;;6.28;2.00;;;;;;;;;;5112893;28;20462;-59
2023/07/30 12:36:14;;;;;;;5.90;1.92;;;;;;;;;;5110999;28;20028;-59
2023/07/30 12:38:41;;;;;;;5.35;1.63;;;;;;;;;;5112904;28;20218;-59
2023/07/30 12:41:06;;;;;;;4.90;1.67;;;;;;;;;;5112243;28;20527;-59
2023/07/30 12:43:31;;;;;;;4.05;1.60;;;;;;;;;;5112116;28;20035;-59
2023/07/30 12:45:57;;;;;;;6.28;1.70;;;;;;;;;;5112607;28;20032;-59
2023/07/30 12:48:22;;;;;;;4.72;1.55;;;;;;;;;;5111911;28;20449;-59
2023/07/30 12:50:47;;;;;;;4.28;1.65;;;;;;;;;;5109774;28;20031;-59
2023/07/30 12:53:13;;;;;;;4.13;1.95;;;;;;;;;;5111549;28;20548;-59
2023/07/30 12:55:39;;;;;;;3.53;1.70;;;;;;;;;;5112440;28;20046;-59
2023/07/30 12:58:04;;;;;;;4.18;1.60;;;;;;;;;;5112598;28;20031;-59
2023/07/30 13:00:30;;;;;;;6.10;2.08;;;;;;;;;;5111673;28;20479;-59
2023/07/30 13:02:56;;;;;;;6.22;2.00;;;;;;;;;;5112478;28;20468;-59
2023/07/30 13:05:22;;;;;;;4.93;1.70;;;;;;;;;;5110439;28;20031;-59
2023/07/30 13:07:48;;;;;;;7.18;2.15;;;;;;;;;;5111221;28;20089;-59
2023/07/30 13:10:14;;;;;;;8.13;2.10;;;;;;;;;;5111555;28;20499;-60
2023/07/30 13:12:39;;;;;;;7.88;2.25;;;;;;;;;;5111952;28;20028;-59
2023/07/30 13:15:05;;;;;;;8.65;2.15;;;;;;;;;;5108072;28;20028;-59
2023/07/30 13:17:31;;;;;;;6.88;2.22;;;;;;;;;;5091141;28;20016;-59
2023/07/30 13:19:56;;;;;;;5.90;1.92;;;;;;;;;;5090894;28;20125;-59
2023/07/30 13:22:22;;;;;;;6.20;2.13;;;;;;;;;;5095510;28;20460;-60
2023/07/30 13:24:47;;;;;;;6.03;2.00;;;;;;;;;;5110695;28;20069;-59
2023/07/30 13:27:13;;;;;;;8.15;2.30;;;;;;;;;;5111483;28;20031;-59
2023/07/30 13:29:38;;;;;;;7.13;2.20;;;;;;;;;;5112121;28;20417;-59
2023/07/30 13:32:04;;;;;;;5.22;1.92;;;;;;;;;;5112730;28;20046;-59
2023/07/30 13:34:31;;;;;;;10.60;2.25;;;;;;;;;;5110824;28;20078;-59
2023/07/30 13:36:56;;;;;;;9.68;2.60;;;;;;;;;;5111310;28;20036;-59
2023/07/30 13:39:21;;;;;;;9.40;2.20;;;;;;;;;;5112157;28;20073;-59
2023/07/30 13:41:47;;;;;;;5.95;1.95;;;;;;;;;;5111941;28;20376;-60
2023/07/30 13:44:12;;;;;;;9.88;2.42;;;;;;;;;;5111474;28;20120;-60
2023/07/30 13:46:40;;;;;;;4.63;2.05;;;;;;;;;;5111821;28;20051;-59
2023/07/30 13:49:05;;;;;;;8.25;2.20;;;;;;;;;;5111944;28;20071;-61
2023/07/30 13:51:32;;;;;;;5.80;2.20;;;;;;;;;;5109267;28;20059;-59
2023/07/30 13:54:01;;;;;;;6.40;2.00;;;;;;;;;;5108636;28;20507;-59
2023/07/30 13:56:30;;;;;;;7.47;1.90;;;;;;;;;;5108300;28;20023;-59
2023/07/30 13:58:56;;;;;;;8.15;1.90;;;;;;;;;;5111877;28;20035;-59
2023/07/30 14:01:22;;;;;;;6.57;1.80;;;;;;;;;;5111240;28;20869;-59
2023/07/30 14:03:48;;;;;;;5.00;1.92;;;;;;;;;;5114103;28;20031;-59
2023/07/30 14:06:13;;;;;;;5.45;1.80;;;;;;;;;;5114639;28;20054;-60
2023/07/30 14:08:39;;;;;;;3.58;1.70;;;;;;;;;;5115758;28;20498;-59
2023/07/30 14:11:04;;;;;;;5.03;1.80;;;;;;;;;;5115897;28;20035;-59
2023/07/30 14:13:29;;;;;;;5.13;1.75;;;;;;;;;;5114925;27;20517;-59
2023/07/30 14:15:55;;;;;;;7.38;1.98;;;;;;;;;;5104037;28;20111;-59
2023/07/30 14:18:22;;;;;;;4.50;1.67;;;;;;;;;;5094680;28;20106;-60
2023/07/30 14:20:47;;;;;;;4.25;1.80;;;;;;;;;;5107287;28;20027;-59
2023/07/30 14:23:13;;;;;;;4.53;1.83;;;;;;;;;;5113202;28;20096;-59
2023/07/30 14:25:39;;;;;;;4.70;1.88;;;;;;;;;;5115611;28;20027;-59
2023/07/30 14:28:04;;;;;;;5.22;1.73;;;;;;;;;;5115801;28;20395;-59
2023/07/30 14:30:30;;;;;;;5.25;1.60;;;;;;;;;;5115078;28;20135;-59